Time;durP1;ratioP1;P1;durP2;ratioP2;P2;SDS_P1;SDS_P2;PMS_P1;PMS_P2;Temp;Humidity;BMP_temperature;BMP_pressure;BME280_temperature;BME280_humidity;BME280_pressure;Samples;Min_cycle;Max_cycle;Signal;HPM_P1;HPM_P2
2023/12/20 00:01:34;;;;;;;21.40;3.90;;;5.10;99.90;;;;;;5085578;28;20202;-57
2023/12/20 00:04:03;;;;;;;16.07;3.47;;;5.10;99.90;;;;;;5087216;28;20246;-56
2023/12/20 00:06:31;;;;;;;25.83;3.60;;;5.10;99.90;;;;;;5086401;28;20230;-56
2023/12/20 00:08:59;;;;;;;17.50;4.37;;;5.10;99.90;;;;;;5085253;28;20215;-55
2023/12/20 00:11:28;;;;;;;23.33;4.40;;;5.00;99.90;;;;;;5086340;28;20224;-55
2023/12/20 00:13:56;;;;;;;12.73;3.33;;;5.00;99.90;;;;;;5080517;28;20196;-57
2023/12/20 00:16:24;;;;;;;22.23;3.97;;;5.00;99.90;;;;;;5085811;28;20196;-56
2023/12/20 00:18:54;;;;;;;21.37;3.90;;;5.00;99.90;;;;;;5078303;28;20645;-56
2023/12/20 00:21:22;;;;;;;19.63;3.97;;;4.90;99.90;;;;;;5085325;28;20248;-56
2023/12/20 00:23:51;;;;;;;20.73;4.43;;;5.00;99.90;;;;;;5081601;28;20223;-55
2023/12/20 00:26:19;;;;;;;17.77;4.63;;;4.90;99.90;;;;;;5084271;28;20235;-56
2023/12/20 00:28:47;;;;;;;17.50;4.57;;;4.90;99.90;;;;;;5085241;28;20715;-56
2023/12/20 00:31:16;;;;;;;14.30;4.50;;;4.90;99.90;;;;;;5087820;28;20223;-57
2023/12/20 00:33:46;;;;;;;21.87;5.00;;;4.90;99.90;;;;;;5085017;28;20318;-56
2023/12/20 00:36:15;;;;;;;18.43;5.17;;;4.90;99.90;;;;;;5087088;28;20516;-56
2023/12/20 00:38:44;;;;;;;17.23;4.73;;;4.90;99.90;;;;;;5085560;28;20223;-57
2023/12/20 00:41:12;;;;;;;19.10;4.73;;;4.90;99.90;;;;;;5079652;28;20180;-56
2023/12/20 00:43:40;;;;;;;22.23;5.37;;;4.90;99.90;;;;;;5087179;28;20195;-56
2023/12/20 00:46:08;;;;;;;22.73;5.57;;;4.90;99.90;;;;;;5084220;28;20711;-57
2023/12/20 00:48:37;;;;;;;20.07;5.00;;;4.90;99.90;;;;;;5082573;28;20288;-56
2023/12/20 00:51:05;;;;;;;32.67;5.20;;;4.80;99.90;;;;;;5082414;28;20639;-56
2023/12/20 00:53:35;;;;;;;21.00;5.50;;;4.90;99.90;;;;;;5083386;28;20231;-56
2023/12/20 00:56:04;;;;;;;21.60;5.60;;;4.90;99.90;;;;;;5091786;28;20269;-57
2023/12/20 00:58:32;;;;;;;22.53;5.90;;;5.00;99.90;;;;;;5089108;28;20191;-57
2023/12/20 01:01:00;;;;;;;17.50;5.67;;;5.00;99.90;;;;;;5088142;28;20217;-56
2023/12/20 01:03:28;;;;;;;23.80;5.80;;;5.00;99.90;;;;;;5085588;28;20264;-57
2023/12/20 01:05:57;;;;;;;24.47;6.20;;;5.00;99.90;;;;;;5084007;28;20293;-56
2023/12/20 01:08:25;;;;;;;24.77;5.97;;;5.00;99.90;;;;;;5085283;28;20264;-56
2023/12/20 01:10:54;;;;;;;25.03;5.97;;;5.00;99.90;;;;;;5091907;28;20201;-56
2023/12/20 01:13:23;;;;;;;30.53;5.60;;;5.00;99.90;;;;;;4988823;28;20233;-55
2023/12/20 01:15:51;;;;;;;24.43;5.73;;;4.90;99.90;;;;;;4991474;28;20684;-56
2023/12/20 01:18:19;;;;;;;20.57;5.93;;;5.00;99.90;;;;;;5046104;28;20331;-56
2023/12/20 01:20:48;;;;;;;30.10;5.87;;;5.00;99.90;;;;;;5089604;28;20226;-56
2023/12/20 01:23:16;;;;;;;22.83;6.20;;;4.90;99.90;;;;;;5088218;28;20219;-56
2023/12/20 01:25:44;;;;;;;21.90;6.13;;;4.90;99.90;;;;;;5087164;28;20184;-57
2023/12/20 01:28:13;;;;;;;20.20;5.90;;;4.90;99.90;;;;;;5085942;28;20215;-56
2023/12/20 01:30:42;;;;;;;31.27;5.63;;;5.00;99.90;;;;;;5088904;28;20215;-57
2023/12/20 01:33:10;;;;;;;20.87;5.77;;;5.00;99.90;;;;;;5089921;28;20256;-56
2023/12/20 01:35:39;;;;;;;21.90;5.40;;;5.00;99.90;;;;;;5090605;28;20215;-56
2023/12/20 01:38:07;;;;;;;21.10;5.17;;;5.10;99.90;;;;;;5086495;28;20194;-56
2023/12/20 01:40:35;;;;;;;21.83;5.07;;;5.00;99.90;;;;;;5088856;28;20295;-57
2023/12/20 01:43:08;;;;;;;28.73;5.97;;;5.10;99.90;;;;;;5085486;28;20219;-55
2023/12/20 01:45:37;;;;;;;20.80;4.77;;;5.00;99.90;;;;;;5087847;28;20226;-56
2023/12/20 01:48:07;;;;;;;32.37;5.37;;;5.10;99.90;;;;;;5087684;28;20214;-56
2023/12/20 01:50:37;;;;;;;39.40;5.13;;;5.10;99.90;;;;;;5086126;28;20223;-56
2023/12/20 01:53:08;;;;;;;22.33;5.60;;;5.00;99.90;;;;;;5086217;28;20664;-56
2023/12/20 01:55:39;;;;;;;26.83;4.57;;;5.00;99.90;;;;;;5083136;28;20562;-56
2023/12/20 01:58:10;;;;;;;25.77;5.13;;;5.00;99.90;;;;;;5087856;28;20227;-56
2023/12/20 02:00:39;;;;;;;26.07;5.30;;;5.00;99.90;;;;;;5083931;28;20708;-55
2023/12/20 02:03:08;;;;;;;24.40;5.87;;;5.00;99.90;;;;;;5083203;28;20218;-56
2023/12/20 02:05:38;;;;;;;25.97;5.23;;;5.00;99.90;;;;;;5084199;28;20597;-56
2023/12/20 02:08:07;;;;;;;28.80;6.50;;;5.00;99.90;;;;;;5087253;28;20203;-55
2023/12/20 02:10:36;;;;;;;26.73;6.57;;;5.10;99.90;;;;;;5086198;28;20230;-57
2023/12/20 02:13:07;;;;;;;26.60;6.13;;;5.20;99.90;;;;;;5087580;28;20226;-57
2023/12/20 02:15:36;;;;;;;23.23;5.67;;;5.20;99.90;;;;;;5090336;28;20247;-57
2023/12/20 02:18:07;;;;;;;31.30;6.87;;;5.30;99.90;;;;;;5087167;28;20219;-55
2023/12/20 02:20:35;;;;;;;26.47;6.03;;;5.30;99.90;;;;;;5085225;28;20219;-56
2023/12/20 02:23:05;;;;;;;28.70;6.07;;;5.30;99.90;;;;;;5079581;28;20196;-56
2023/12/20 02:25:33;;;;;;;23.97;6.10;;;5.30;99.90;;;;;;5086856;28;20275;-57
2023/12/20 02:28:02;;;;;;;29.23;6.50;;;5.30;99.90;;;;;;5085497;28;20241;-56
2023/12/20 02:30:30;;;;;;;39.50;6.20;;;5.30;99.90;;;;;;5085802;27;20223;-55
2023/12/20 02:33:00;;;;;;;23.20;5.77;;;5.30;99.90;;;;;;5085369;27;20215;-56
2023/12/20 02:35:29;;;;;;;20.33;5.43;;;5.30;99.90;;;;;;5084460;28;20224;-56
2023/12/20 02:37:57;;;;;;;30.83;6.07;;;5.40;99.90;;;;;;5079986;28;20191;-55
2023/12/20 02:40:27;;;;;;;31.03;6.67;;;5.40;99.90;;;;;;5086270;28;20195;-56
2023/12/20 02:42:55;;;;;;;23.10;7.23;;;5.40;99.90;;;;;;5080315;28;20223;-55
2023/12/20 02:45:23;;;;;;;25.53;5.63;;;5.40;99.90;;;;;;5087905;28;20219;-56
2023/12/20 02:47:51;;;;;;;34.77;6.23;;;5.40;99.90;;;;;;5083762;28;20318;-56
2023/12/20 02:50:20;;;;;;;35.67;6.87;;;5.50;99.90;;;;;;5084745;28;20272;-57
2023/12/20 02:52:48;;;;;;;22.33;6.47;;;5.50;99.90;;;;;;5080854;28;20559;-57
2023/12/20 02:55:16;;;;;;;24.30;6.23;;;5.50;99.90;;;;;;5085524;28;20215;-56
2023/12/20 02:57:46;;;;;;;26.43;6.40;;;5.60;99.90;;;;;;5082738;28;20211;-56
2023/12/20 03:00:15;;;;;;;30.73;7.03;;;5.60;99.90;;;;;;5087124;28;20234;-56
2023/12/20 03:02:43;;;;;;;26.67;7.47;;;5.60;99.90;;;;;;5086239;28;20689;-57
2023/12/20 03:05:11;;;;;;;22.47;6.13;;;5.60;99.90;;;;;;5089577;28;20707;-55
2023/12/20 03:07:40;;;;;;;21.30;6.20;;;5.70;99.90;;;;;;5086195;28;20184;-55
2023/12/20 03:10:09;;;;;;;22.63;5.90;;;5.70;99.90;;;;;;5085634;28;20241;-56
2023/12/20 03:12:48;;;;;;;25.83;5.20;;;5.60;99.90;;;;;;5084738;28;20224;-56
2023/12/20 03:15:17;;;;;;;27.23;5.60;;;5.60;99.90;;;;;;5080316;28;20215;-56
2023/12/20 03:17:45;;;;;;;19.77;5.53;;;5.60;99.90;;;;;;5088815;28;20241;-56
2023/12/20 03:20:15;;;;;;;34.17;5.70;;;5.60;99.90;;;;;;5085110;28;20218;-57
2023/12/20 03:22:43;;;;;;;15.37;5.43;;;5.50;99.90;;;;;;5086068;28;20184;-56
2023/12/20 03:25:11;;;;;;;23.97;5.27;;;5.50;99.90;;;;;;5086700;28;20234;-56
2023/12/20 03:27:39;;;;;;;36.57;5.93;;;5.50;99.90;;;;;;5088141;28;20643;-55
2023/12/20 03:30:10;;;;;;;23.83;5.20;;;5.50;99.90;;;;;;5083913;28;20231;-55
2023/12/20 03:32:39;;;;;;;18.90;5.00;;;5.50;99.90;;;;;;5085884;28;20718;-57
2023/12/20 03:35:07;;;;;;;25.80;4.83;;;5.50;99.90;;;;;;5089362;28;20266;-56
2023/12/20 03:37:36;;;;;;;36.00;5.37;;;5.50;99.90;;;;;;5091517;28;20239;-56
2023/12/20 03:40:05;;;;;;;19.90;4.97;;;5.50;99.90;;;;;;5085288;28;20712;-57
2023/12/20 03:42:34;;;;;;;24.23;5.40;;;5.60;99.90;;;;;;5082701;28;20247;-55
2023/12/20 03:45:03;;;;;;;23.47;5.50;;;5.50;99.90;;;;;;5082015;28;20215;-57
2023/12/20 03:47:32;;;;;;;21.37;5.00;;;5.50;99.90;;;;;;5082848;28;20215;-57
2023/12/20 03:50:01;;;;;;;18.20;5.40;;;5.50;99.90;;;;;;5086460;28;20814;-55
2023/12/20 03:52:29;;;;;;;27.47;5.20;;;5.40;99.90;;;;;;5083909;28;20207;-56
2023/12/20 03:54:58;;;;;;;26.37;4.87;;;5.40;99.90;;;;;;5082116;28;20266;-56
2023/12/20 03:57:26;;;;;;;25.50;5.03;;;5.40;99.90;;;;;;5079325;28;20273;-56
2023/12/20 03:59:54;;;;;;;25.40;5.20;;;5.30;99.90;;;;;;5084163;28;20275;-56
2023/12/20 04:02:23;;;;;;;19.93;5.07;;;5.30;99.90;;;;;;5082524;28;20234;-56
2023/12/20 04:04:53;;;;;;;20.87;5.40;;;5.20;99.90;;;;;;5079005;28;20191;-55
2023/12/20 04:07:21;;;;;;;23.87;5.30;;;5.30;99.90;;;;;;5083071;28;20215;-55
2023/12/20 04:09:49;;;;;;;20.40;5.23;;;5.30;99.90;;;;;;5086145;27;20215;-56
2023/12/20 04:12:18;;;;;;;23.83;5.30;;;5.20;99.90;;;;;;5085113;28;20227;-55
2023/12/20 04:14:46;;;;;;;20.07;4.97;;;5.20;99.90;;;;;;5083754;28;20235;-57
2023/12/20 04:17:15;;;;;;;23.43;5.00;;;5.20;99.90;;;;;;5086548;28;20202;-56
2023/12/20 04:19:43;;;;;;;19.33;4.77;;;5.10;99.90;;;;;;5086024;28;20644;-56
2023/12/20 04:22:13;;;;;;;25.90;5.00;;;5.20;99.90;;;;;;5084191;28;20238;-56
2023/12/20 04:24:43;;;;;;;16.70;5.10;;;5.10;99.90;;;;;;5082443;28;20215;-56
2023/12/20 04:27:11;;;;;;;34.47;6.17;;;5.10;99.90;;;;;;5083884;28;20584;-56
2023/12/20 04:29:40;;;;;;;25.40;4.97;;;5.10;99.90;;;;;;5088267;28;20219;-55
2023/12/20 04:32:09;;;;;;;22.83;4.97;;;5.10;99.90;;;;;;5087433;28;20180;-56
2023/12/20 04:34:38;;;;;;;23.40;5.03;;;5.10;99.90;;;;;;5086140;28;20187;-56
2023/12/20 04:37:06;;;;;;;28.40;6.20;;;5.10;99.90;;;;;;5086429;28;20681;-56
2023/12/20 04:39:36;;;;;;;20.10;5.30;;;5.10;99.90;;;;;;5085448;28;20248;-56
2023/12/20 04:42:04;;;;;;;22.30;5.10;;;5.20;99.90;;;;;;5084578;28;20215;-56
2023/12/20 04:44:33;;;;;;;28.17;4.93;;;5.20;99.90;;;;;;5083957;28;20218;-56
2023/12/20 04:47:01;;;;;;;18.33;5.20;;;5.10;99.90;;;;;;5082342;28;20201;-56
2023/12/20 04:49:29;;;;;;;25.90;5.30;;;5.10;99.90;;;;;;5083291;28;20204;-56
2023/12/20 04:51:58;;;;;;;22.87;4.80;;;5.10;99.90;;;;;;5088625;28;20328;-56
2023/12/20 04:54:26;;;;;;;26.53;5.50;;;5.00;99.90;;;;;;5084993;28;20227;-57
2023/12/20 04:56:56;;;;;;;21.73;4.67;;;5.00;99.90;;;;;;5082016;27;20231;-57
2023/12/20 04:59:24;;;;;;;19.13;5.03;;;4.90;99.90;;;;;;5084612;28;20235;-55
2023/12/20 05:01:52;;;;;;;22.77;5.10;;;4.90;99.90;;;;;;5083603;28;20223;-56
2023/12/20 05:04:20;;;;;;;20.43;5.60;;;5.00;99.90;;;;;;5079481;28;20759;-56
2023/12/20 05:06:49;;;;;;;28.37;5.27;;;4.90;99.90;;;;;;5083353;28;20336;-56
2023/12/20 05:09:18;;;;;;;27.87;5.00;;;4.90;99.90;;;;;;5085956;28;20222;-57
2023/12/20 05:11:46;;;;;;;24.20;5.60;;;4.80;99.90;;;;;;5079213;28;20222;-57
2023/12/20 05:14:16;;;;;;;25.00;5.40;;;4.80;99.90;;;;;;5078833;28;20196;-56
2023/12/20 05:16:44;;;;;;;21.17;5.70;;;4.80;99.90;;;;;;5083141;28;20198;-57
2023/12/20 05:19:14;;;;;;;19.20;5.77;;;4.80;99.90;;;;;;5083536;28;20225;-56
2023/12/20 05:21:42;;;;;;;15.50;5.70;;;4.80;99.90;;;;;;5081683;28;20325;-57
2023/12/20 05:24:10;;;;;;;25.20;4.87;;;4.80;99.90;;;;;;5077847;28;20581;-56
2023/12/20 05:26:39;;;;;;;24.90;5.50;;;4.80;99.90;;;;;;5082715;28;20215;-55
2023/12/20 05:29:07;;;;;;;25.90;5.70;;;4.80;99.90;;;;;;5088224;28;20275;-56
2023/12/20 05:31:36;;;;;;;20.80;6.27;;;4.80;99.90;;;;;;5082499;28;20200;-56
2023/12/20 05:34:05;;;;;;;34.50;5.97;;;4.80;99.90;;;;;;5086150;28;20238;-56
2023/12/20 05:36:33;;;;;;;27.10;5.47;;;4.70;99.90;;;;;;5084300;28;20211;-55
2023/12/20 05:39:01;;;;;;;31.77;5.80;;;4.80;99.90;;;;;;5082733;28;20215;-56
2023/12/20 05:41:30;;;;;;;21.40;5.73;;;4.80;99.90;;;;;;5087654;28;20230;-56
2023/12/20 05:43:59;;;;;;;21.20;5.43;;;4.80;99.90;;;;;;5087956;28;20183;-55
2023/12/20 05:46:27;;;;;;;22.10;4.47;;;4.80;99.90;;;;;;5084225;28;20223;-56
2023/12/20 05:48:57;;;;;;;22.87;5.07;;;4.80;99.90;;;;;;5089270;28;20218;-57
2023/12/20 05:51:25;;;;;;;24.23;5.50;;;4.80;99.90;;;;;;5087042;28;20554;-57
2023/12/20 05:53:53;;;;;;;35.00;5.30;;;4.80;99.90;;;;;;5083839;28;20218;-56
2023/12/20 05:56:22;;;;;;;30.03;5.20;;;4.80;99.90;;;;;;5089517;28;20316;-57
2023/12/20 05:58:50;;;;;;;19.93;5.50;;;4.80;99.90;;;;;;5084724;28;20215;-56
2023/12/20 06:01:18;;;;;;;25.37;5.80;;;4.90;99.90;;;;;;5088139;28;20215;-56
2023/12/20 06:03:47;;;;;;;22.50;4.83;;;4.90;99.90;;;;;;5089884;28;20219;-55
2023/12/20 06:06:17;;;;;;;15.83;5.10;;;5.00;99.90;;;;;;5091030;28;20596;-57
2023/12/20 06:08:45;;;;;;;18.67;4.43;;;5.00;99.90;;;;;;5087075;28;20581;-56
2023/12/20 06:11:14;;;;;;;21.60;5.17;;;5.10;99.90;;;;;;5089719;28;20564;-55
2023/12/20 06:13:43;;;;;;;25.73;4.93;;;5.00;99.90;;;;;;5086896;28;20579;-55
2023/12/20 06:16:11;;;;;;;30.77;4.57;;;5.00;99.90;;;;;;5085923;28;20219;-56
2023/12/20 06:18:39;;;;;;;25.43;6.07;;;5.00;99.90;;;;;;5089165;28;20223;-56
2023/12/20 06:21:12;;;;;;;20.83;5.30;;;4.90;99.90;;;;;;5086669;28;20756;-56
2023/12/20 06:23:42;;;;;;;27.17;5.03;;;4.80;99.90;;;;;;5087173;28;20302;-56
2023/12/20 06:26:10;;;;;;;17.33;4.53;;;4.80;99.90;;;;;;5086572;28;20192;-56
2023/12/20 06:28:38;;;;;;;13.30;3.87;;;4.80;99.90;;;;;;5089374;28;20206;-56
2023/12/20 06:31:09;;;;;;;22.33;4.53;;;4.80;99.90;;;;;;5088897;28;20708;-55
2023/12/20 06:33:40;;;;;;;21.73;3.93;;;4.80;99.90;;;;;;5085092;28;20207;-56
2023/12/20 06:36:11;;;;;;;21.17;4.77;;;4.80;99.90;;;;;;5085309;28;20681;-56
2023/12/20 06:38:39;;;;;;;31.23;5.33;;;4.80;99.90;;;;;;5082392;28;20223;-56
2023/12/20 06:41:09;;;;;;;24.63;4.93;;;4.90;99.90;;;;;;5087284;28;20203;-55
2023/12/20 06:43:37;;;;;;;25.20;4.03;;;4.90;99.90;;;;;;5090437;28;20187;-54
2023/12/20 06:46:17;;;;;;;21.83;4.53;;;4.90;99.90;;;;;;5088498;28;20215;-56
2023/12/20 06:48:46;;;;;;;21.67;4.07;;;4.80;99.90;;;;;;5083377;28;20296;-57
2023/12/20 06:51:16;;;;;;;17.37;4.10;;;4.80;99.90;;;;;;5087190;28;20220;-54
2023/12/20 06:53:45;;;;;;;19.17;3.60;;;4.80;99.90;;;;;;5084304;28;20230;-56
2023/12/20 06:56:14;;;;;;;17.87;4.00;;;4.80;99.90;;;;;;5085959;28;20717;-57
2023/12/20 06:58:46;;;;;;;22.30;5.00;;;4.80;99.90;;;;;;5086550;28;20219;-56
2023/12/20 07:01:15;;;;;;;20.63;4.63;;;4.80;99.90;;;;;;5086609;27;20229;-57
2023/12/20 07:03:44;;;;;;;15.37;4.17;;;4.80;99.90;;;;;;5084967;28;20206;-55
2023/12/20 07:06:13;;;;;;;20.67;3.83;;;4.80;99.90;;;;;;5084712;28;20693;-56
2023/12/20 07:08:42;;;;;;;18.80;4.17;;;4.70;99.90;;;;;;5085001;28;20238;-56
2023/12/20 07:11:10;;;;;;;21.50;4.73;;;4.70;99.90;;;;;;5088878;28;20191;-56
2023/12/20 07:13:42;;;;;;;16.73;4.10;;;4.70;99.90;;;;;;5083650;28;20219;-55
2023/12/20 07:16:11;;;;;;;21.43;3.87;;;4.70;99.90;;;;;;5087409;28;20215;-57
2023/12/20 07:18:39;;;;;;;28.73;4.27;;;4.60;99.90;;;;;;5087597;28;20728;-55
2023/12/20 07:21:09;;;;;;;21.37;4.30;;;4.60;99.90;;;;;;5085532;28;20260;-55
2023/12/20 07:23:37;;;;;;;22.60;4.53;;;4.70;99.90;;;;;;5083767;28;20574;-57
2023/12/20 07:26:06;;;;;;;13.93;3.93;;;4.70;99.90;;;;;;5081363;28;20791;-57
2023/12/20 07:28:34;;;;;;;15.07;4.10;;;4.60;99.90;;;;;;5081798;28;20199;-56
2023/12/20 07:31:04;;;;;;;23.93;4.67;;;4.60;99.90;;;;;;5085803;28;20716;-56
2023/12/20 07:33:34;;;;;;;23.73;4.40;;;4.60;99.90;;;;;;5087264;28;20219;-56
2023/12/20 07:36:07;;;;;;;29.10;4.23;;;4.60;99.90;;;;;;5085191;28;20272;-55
2023/12/20 07:38:36;;;;;;;23.57;4.57;;;4.60;99.90;;;;;;5084372;28;20597;-57
2023/12/20 07:41:05;;;;;;;14.53;3.97;;;4.70;99.90;;;;;;5079019;28;20282;-56
2023/12/20 07:43:33;;;;;;;22.07;4.57;;;4.60;99.90;;;;;;5086202;28;20195;-57
2023/12/20 07:46:07;;;;;;;22.93;4.47;;;4.70;99.90;;;;;;5088851;27;20258;-57
2023/12/20 07:48:36;;;;;;;21.83;4.40;;;4.60;99.90;;;;;;5084717;28;20284;-56
2023/12/20 07:51:05;;;;;;;21.23;3.80;;;4.70;99.90;;;;;;5082132;28;20215;-57
2023/12/20 07:53:34;;;;;;;23.63;4.70;;;4.60;99.90;;;;;;5080891;28;20216;-56
2023/12/20 07:56:02;;;;;;;18.73;4.13;;;4.60;99.90;;;;;;5085912;28;20210;-56
2023/12/20 07:58:31;;;;;;;19.23;3.83;;;4.50;99.90;;;;;;5086259;28;20218;-55
2023/12/20 08:01:19;;;;;;;20.27;4.23;;;4.50;99.90;;;;;;5083882;28;20714;-55
2023/12/20 08:03:49;;;;;;;14.67;3.93;;;4.60;99.90;;;;;;5077479;28;20250;-56
2023/12/20 08:06:18;;;;;;;19.70;4.63;;;4.50;99.90;;;;;;5079772;28;20328;-57
2023/12/20 08:08:46;;;;;;;24.47;4.07;;;4.60;99.90;;;;;;5083146;28;20240;-56
2023/12/20 08:11:26;;;;;;;18.80;4.13;;;4.60;99.90;;;;;;5080345;28;20211;-56
2023/12/20 08:13:54;;;;;;;13.87;4.70;;;4.60;99.90;;;;;;5082707;28;20191;-56
2023/12/20 08:16:23;;;;;;;18.83;4.33;;;4.60;99.90;;;;;;5087885;28;20227;-55
2023/12/20 08:18:52;;;;;;;12.60;4.20;;;4.60;99.90;;;;;;5084191;28;20216;-57
2023/12/20 08:21:22;;;;;;;21.80;4.20;;;4.60;99.90;;;;;;5081623;28;20281;-57
2023/12/20 08:23:52;;;;;;;14.40;4.07;;;4.60;99.90;;;;;;5079914;28;20227;-56
2023/12/20 08:26:22;;;;;;;16.13;3.70;;;4.60;99.90;;;;;;5082341;28;20232;-56
2023/12/20 08:28:51;;;;;;;19.70;3.93;;;4.60;99.90;;;;;;5084337;28;20271;-57
2023/12/20 08:31:20;;;;;;;20.37;4.07;;;4.70;99.90;;;;;;5084749;28;20263;-56
2023/12/20 08:33:52;;;;;;;18.07;4.30;;;4.70;99.90;;;;;;5080672;28;20445;-55
2023/12/20 08:36:23;;;;;;;14.97;4.40;;;4.80;99.90;;;;;;5082563;28;20621;-55
2023/12/20 08:38:52;;;;;;;19.13;4.57;;;4.80;99.90;;;;;;5082511;28;20208;-56
2023/12/20 08:41:20;;;;;;;20.97;3.77;;;4.90;99.90;;;;;;5081929;28;20231;-56
2023/12/20 08:43:48;;;;;;;20.93;4.00;;;4.90;99.90;;;;;;5084746;28;20195;-55
2023/12/20 08:46:17;;;;;;;20.47;4.00;;;4.90;99.90;;;;;;5081497;28;20222;-56
2023/12/20 08:48:45;;;;;;;18.40;3.73;;;4.90;99.90;;;;;;5084772;28;20254;-57
2023/12/20 08:51:16;;;;;;;17.23;4.17;;;5.00;99.90;;;;;;5079498;28;20772;-56
2023/12/20 08:53:45;;;;;;;12.43;3.43;;;5.10;99.90;;;;;;5084903;28;20307;-55
2023/12/20 08:56:13;;;;;;;12.00;3.60;;;5.10;99.90;;;;;;5081197;28;20195;-56
2023/12/20 08:58:42;;;;;;;14.63;3.73;;;5.10;99.90;;;;;;5082436;28;20335;-54
2023/12/20 09:01:10;;;;;;;15.93;3.80;;;5.20;99.90;;;;;;5079826;28;20222;-56
2023/12/20 09:03:39;;;;;;;11.47;3.53;;;5.20;99.90;;;;;;5082199;28;20216;-56
2023/12/20 09:06:07;;;;;;;16.93;3.50;;;5.30;99.90;;;;;;5080595;28;20215;-55
2023/12/20 09:08:37;;;;;;;16.57;3.70;;;5.40;99.90;;;;;;5087193;28;20215;-54
2023/12/20 09:11:05;;;;;;;16.37;3.80;;;5.40;99.90;;;;;;5083243;28;20211;-57
2023/12/20 09:13:34;;;;;;;14.67;3.47;;;5.50;99.90;;;;;;5081382;28;20199;-56
2023/12/20 09:16:02;;;;;;;13.40;3.40;;;5.50;99.90;;;;;;5086836;28;20588;-56
2023/12/20 09:18:30;;;;;;;15.67;3.33;;;5.70;99.90;;;;;;5088116;28;20216;-56
2023/12/20 09:20:58;;;;;;;18.30;3.87;;;5.80;99.90;;;;;;5087051;28;20726;-56
2023/12/20 09:23:27;;;;;;;14.20;3.27;;;6.00;99.90;;;;;;5085453;28;20219;-57
2023/12/20 09:25:56;;;;;;;15.10;2.90;;;6.10;99.90;;;;;;5087343;28;20201;-55
2023/12/20 09:28:25;;;;;;;17.03;3.87;;;6.20;99.90;;;;;;5087211;28;20199;-57
2023/12/20 09:30:53;;;;;;;10.37;3.40;;;6.30;99.90;;;;;;5085640;28;20562;-57
2023/12/20 09:33:22;;;;;;;5.77;2.57;;;6.40;99.90;;;;;;5091357;28;20623;-57
2023/12/20 09:35:50;;;;;;;13.97;3.20;;;6.50;99.90;;;;;;5086166;28;20215;-56
2023/12/20 09:38:19;;;;;;;9.30;3.03;;;6.60;99.90;;;;;;5081449;28;20238;-57
2023/12/20 09:40:47;;;;;;;18.60;3.40;;;6.70;99.90;;;;;;5088865;28;20538;-57
2023/12/20 09:43:19;;;;;;;12.90;3.60;;;6.70;99.90;;;;;;5086469;28;20211;-57
2023/12/20 09:45:49;;;;;;;11.67;3.60;;;6.70;99.90;;;;;;5082842;28;20570;-58
2023/12/20 09:48:19;;;;;;;14.87;3.30;;;6.60;99.90;;;;;;5089706;28;20857;-55
2023/12/20 09:50:48;;;;;;;7.93;3.30;;;6.60;99.90;;;;;;5082568;28;20659;-58
2023/12/20 09:53:23;;;;;;;14.77;3.30;;;6.60;99.90;;;;;;5085404;28;20589;-57
2023/12/20 09:55:54;;;;;;;10.77;2.80;;;6.80;99.90;;;;;;5087365;28;20630;-56
2023/12/20 09:58:23;;;;;;;12.20;3.37;;;7.00;99.90;;;;;;5085414;28;20621;-57
2023/12/20 10:00:52;;;;;;;10.47;3.13;;;7.20;99.90;;;;;;5083756;28;20243;-58
2023/12/20 10:03:26;;;;;;;11.13;3.47;;;7.40;99.90;;;;;;5083506;28;20297;-58
2023/12/20 10:05:58;;;;;;;14.93;3.10;;;7.40;99.90;;;;;;5085987;28;20730;-57
2023/12/20 10:08:27;;;;;;;9.73;3.10;;;7.30;99.90;;;;;;5088216;28;20293;-57
2023/12/20 10:10:57;;;;;;;13.13;3.30;;;7.30;99.90;;;;;;5085535;28;20216;-57
2023/12/20 10:13:27;;;;;;;8.60;3.40;;;7.30;99.90;;;;;;5085054;28;20622;-56
2023/12/20 10:15:57;;;;;;;14.50;3.60;;;7.30;99.90;;;;;;5088783;28;20219;-56
2023/12/20 10:18:25;;;;;;;14.37;3.40;;;7.30;99.90;;;;;;5081843;28;20222;-57
2023/12/20 10:21:07;;;;;;;11.17;3.07;;;7.30;99.90;;;;;;5088473;28;20218;-56
2023/12/20 10:23:39;;;;;;;11.33;3.33;;;7.40;99.90;;;;;;5077628;28;20226;-57
2023/12/20 10:26:07;;;;;;;10.03;2.93;;;7.40;99.90;;;;;;5082476;28;20230;-57
2023/12/20 10:28:37;;;;;;;8.90;3.27;;;7.40;99.90;;;;;;5088683;28;20279;-57
2023/12/20 10:31:06;;;;;;;10.90;3.33;;;7.40;99.90;;;;;;5085883;28;20215;-58
2023/12/20 10:33:34;;;;;;;14.17;4.13;;;7.50;99.90;;;;;;5086720;28;20612;-57
2023/12/20 10:36:03;;;;;;;10.80;3.10;;;7.50;99.90;;;;;;5082656;28;20238;-57
2023/12/20 10:38:32;;;;;;;7.47;3.20;;;7.50;99.90;;;;;;5083405;28;20258;-57
2023/12/20 10:41:02;;;;;;;11.93;3.43;;;7.60;99.90;;;;;;5085014;28;20261;-58
2023/12/20 10:43:35;;;;;;;13.80;3.07;;;7.60;99.90;;;;;;5085785;28;20223;-57
2023/12/20 10:46:07;;;;;;;16.63;4.53;;;7.50;99.90;;;;;;5085871;28;20219;-56
2023/12/20 10:48:36;;;;;;;17.63;3.47;;;7.50;99.90;;;;;;5099434;28;20266;-58
2023/12/20 10:51:06;;;;;;;15.50;3.70;;;7.50;99.90;;;;;;5084232;28;20246;-56
2023/12/20 10:53:36;;;;;;;15.00;3.73;;;7.50;99.90;;;;;;5079652;28;20223;-58
2023/12/20 10:56:06;;;;;;;18.10;3.17;;;7.50;99.90;;;;;;5081170;28;20200;-56
2023/12/20 10:58:36;;;;;;;6.90;3.07;;;7.50;99.90;;;;;;5085290;28;20287;-57
2023/12/20 11:01:07;;;;;;;19.30;3.20;;;7.60;99.90;;;;;;5087059;28;20617;-58
2023/12/20 11:03:38;;;;;;;12.23;2.83;;;7.60;99.90;;;;;;5085243;28;20246;-58
2023/12/20 11:06:14;;;;;;;15.37;3.40;;;7.60;99.90;;;;;;5085211;28;21473;-58
2023/12/20 11:08:51;;;;;;;13.77;3.27;;;7.60;99.90;;;;;;5083539;28;20216;-58
2023/12/20 11:11:28;;;;;;;16.37;3.37;;;7.60;99.90;;;;;;5078219;28;20769;-58
2023/12/20 11:14:01;;;;;;;11.33;3.00;;;7.70;99.90;;;;;;5083392;28;20194;-58
2023/12/20 11:16:32;;;;;;;14.13;3.93;;;7.70;99.90;;;;;;5087072;28;20199;-58
2023/12/20 11:19:15;;;;;;;13.90;3.00;;;7.70;99.90;;;;;;5086926;27;20295;-58
2023/12/20 11:21:43;;;;;;;14.63;3.10;;;7.80;99.90;;;;;;5082790;28;20708;-57
2023/12/20 11:24:12;;;;;;;16.67;3.27;;;7.80;99.90;;;;;;5086211;28;20260;-58
2023/12/20 11:26:48;;;;;;;17.57;3.47;;;7.80;99.90;;;;;;5088594;28;20215;-57
2023/12/20 11:29:32;;;;;;;15.03;3.03;;;7.90;99.90;;;;;;5087399;28;20301;-57
2023/12/20 11:32:03;;;;;;;10.63;3.03;;;8.00;99.90;;;;;;5084286;28;20192;-58
2023/12/20 11:34:34;;;;;;;17.03;3.17;;;8.00;99.90;;;;;;5088114;28;20188;-57
2023/12/20 11:37:04;;;;;;;15.47;3.73;;;8.00;99.90;;;;;;5087058;28;20219;-58
2023/12/20 11:39:32;;;;;;;14.90;3.10;;;8.10;99.90;;;;;;5086068;28;20226;-57
2023/12/20 11:42:06;;;;;;;18.07;3.60;;;8.10;99.90;;;;;;5086847;28;20222;-55
2023/12/20 11:44:34;;;;;;;14.43;3.33;;;8.10;99.90;;;;;;5084936;28;20226;-58
2023/12/20 11:47:05;;;;;;;9.63;3.37;;;8.10;99.90;;;;;;5085784;28;20184;-57
2023/12/20 11:49:33;;;;;;;16.53;3.67;;;8.10;99.90;;;;;;5083873;28;20195;-57
2023/12/20 11:52:01;;;;;;;10.33;3.73;;;8.20;99.90;;;;;;5079764;28;20306;-58
2023/12/20 11:54:31;;;;;;;11.53;3.57;;;8.20;99.90;;;;;;5080255;28;20227;-57
2023/12/20 11:56:59;;;;;;;14.53;3.10;;;8.30;99.90;;;;;;5086445;28;20242;-57
2023/12/20 11:59:28;;;;;;;11.47;3.27;;;8.30;99.90;;;;;;5083478;28;20231;-56
2023/12/20 12:02:00;;;;;;;10.60;3.03;;;8.40;99.90;;;;;;5082459;28;20232;-57
2023/12/20 12:04:31;;;;;;;11.37;3.03;;;8.40;99.90;;;;;;5084833;28;20648;-56
2023/12/20 12:06:59;;;;;;;13.80;3.43;;;8.40;99.90;;;;;;5086047;27;20231;-58
2023/12/20 12:09:28;;;;;;;17.23;3.03;;;8.50;99.90;;;;;;5080644;28;20637;-58
2023/12/20 12:11:57;;;;;;;9.50;2.83;;;8.40;99.90;;;;;;5078216;28;20295;-58
2023/12/20 12:14:25;;;;;;;10.27;2.90;;;8.40;99.90;;;;;;5086691;27;20682;-57
2023/12/20 12:16:54;;;;;;;9.07;2.90;;;8.40;99.90;;;;;;5082767;28;20199;-58
2023/12/20 12:19:23;;;;;;;13.07;3.63;;;8.40;99.90;;;;;;5080676;28;20220;-57
2023/12/20 12:22:04;;;;;;;15.53;3.23;;;8.40;99.90;;;;;;5080007;28;20215;-58
2023/12/20 12:24:33;;;;;;;14.83;2.83;;;8.40;99.90;;;;;;5085169;28;20238;-58
2023/12/20 12:27:01;;;;;;;8.97;3.20;;;8.30;99.90;;;;;;5087233;28;20215;-55
2023/12/20 12:29:29;;;;;;;18.60;3.40;;;8.30;99.90;;;;;;5080562;28;20216;-57
2023/12/20 12:31:58;;;;;;;16.73;3.50;;;8.30;99.90;;;;;;5079462;28;20208;-57
2023/12/20 12:34:28;;;;;;;8.53;3.23;;;8.30;99.90;;;;;;5082612;28;20721;-56
2023/12/20 12:36:59;;;;;;;12.00;3.20;;;8.40;99.90;;;;;;5079472;28;20294;-55
2023/12/20 12:39:27;;;;;;;13.43;2.83;;;8.40;99.90;;;;;;5087858;28;20763;-56
2023/12/20 12:41:55;;;;;;;12.77;3.20;;;8.40;99.90;;;;;;5080978;28;20215;-55
2023/12/20 12:44:24;;;;;;;13.47;3.47;;;8.40;99.90;;;;;;5082667;28;20223;-55
2023/12/20 12:46:54;;;;;;;13.10;3.20;;;8.40;99.90;;;;;;5081443;28;20220;-57
2023/12/20 12:49:22;;;;;;;16.63;3.17;;;8.40;99.90;;;;;;5086151;28;20223;-54
2023/12/20 12:51:52;;;;;;;16.13;3.40;;;8.50;99.90;;;;;;5085230;28;20677;-56
2023/12/20 12:54:21;;;;;;;12.77;3.37;;;8.60;99.90;;;;;;5084253;27;20229;-57
2023/12/20 12:56:53;;;;;;;10.00;3.10;;;8.70;99.90;;;;;;5085615;28;20267;-57
2023/12/20 12:59:22;;;;;;;15.17;3.20;;;8.80;99.90;;;;;;5089598;28;20215;-57